Time;durP1;ratioP1;P1;durP2;ratioP2;P2;SDS_P1;SDS_P2;PMS_P1;PMS_P2;Temp;Humidity;BMP_temperature;BMP_pressure;BME280_temperature;BME280_humidity;BME280_pressure;Samples;Min_cycle;Max_cycle;Signal;HPM_P1;HPM_P2
2023/05/31 00:05:59;;;;;;;15.48;8.27;;;11.80;99.90;;;;;;12444408;28;20414;-36
2023/05/31 00:12:01;;;;;;;12.98;7.95;;;11.70;99.90;;;;;;12437042;28;20046;-37
2023/05/31 00:18:03;;;;;;;12.45;8.20;;;11.80;99.90;;;;;;12441816;28;20057;-36
2023/05/31 00:24:05;;;;;;;14.40;7.60;;;11.80;99.90;;;;;;12444141;28;20050;-36
2023/05/31 00:30:07;;;;;;;13.32;7.68;;;11.70;99.90;;;;;;12439050;28;20513;-36
2023/05/31 00:36:09;;;;;;;13.57;7.47;;;11.70;99.90;;;;;;12419107;28;20042;-37
2023/05/31 00:42:11;;;;;;;13.38;8.10;;;11.60;99.90;;;;;;12443613;28;20045;-37
2023/05/31 00:48:13;;;;;;;11.27;7.32;;;11.60;99.90;;;;;;12452928;28;20054;-36
2023/05/31 00:54:15;;;;;;;15.35;8.20;;;11.60;99.90;;;;;;12454935;28;20052;-36
2023/05/31 01:00:17;;;;;;;15.52;8.32;;;11.50;99.90;;;;;;12446036;28;20088;-37
2023/05/31 01:06:19;;;;;;;13.52;7.78;;;11.50;99.90;;;;;;12444010;28;20465;-37
2023/05/31 01:12:50;;;;;;;13.65;7.82;;;11.40;99.90;;;;;;12454696;28;20048;-37
2023/05/31 01:19:00;;;;;;;15.43;8.32;;;11.40;99.90;;;;;;12455221;28;20038;-37
2023/05/31 01:25:27;;;;;;;16.13;7.75;;;11.30;99.90;;;;;;12448594;28;20052;-37
2023/05/31 01:31:32;;;;;;;16.70;8.20;;;11.30;99.90;;;;;;12449098;28;20057;-36
2023/05/31 01:37:34;;;;;;;12.82;7.80;;;11.30;99.90;;;;;;12458867;28;20057;-36
2023/05/31 01:43:41;;;;;;;14.38;8.73;;;11.10;99.90;;;;;;12449325;28;20052;-37
2023/05/31 01:49:43;;;;;;;16.25;9.05;;;11.10;99.90;;;;;;12449213;28;20463;-37
2023/05/31 01:55:46;;;;;;;11.38;8.27;;;11.00;99.90;;;;;;12454008;28;20418;-36
2023/05/31 02:01:48;;;;;;;13.73;8.88;;;11.10;99.90;;;;;;12457105;28;20042;-36
2023/05/31 02:07:50;;;;;;;18.48;9.75;;;11.10;99.90;;;;;;12447854;28;20057;-36
2023/05/31 02:13:52;;;;;;;14.57;9.15;;;10.90;99.90;;;;;;12423600;28;20041;-36
2023/05/31 02:19:55;;;;;;;15.55;9.13;;;10.80;99.90;;;;;;12422585;28;20157;-36
2023/05/31 02:25:56;;;;;;;15.45;9.02;;;11.00;99.90;;;;;;12440262;28;20038;-36
2023/05/31 02:31:58;;;;;;;17.33;9.25;;;10.90;99.90;;;;;;12427320;28;20057;-36
2023/05/31 02:38:01;;;;;;;20.15;9.20;;;10.70;99.90;;;;;;12424091;28;20460;-36
2023/05/31 02:44:03;;;;;;;12.10;8.75;;;10.70;99.90;;;;;;12415152;28;20510;-36
2023/05/31 02:50:10;;;;;;;16.90;8.38;;;10.60;99.90;;;;;;12435127;28;20117;-36
2023/05/31 02:56:12;;;;;;;14.85;8.85;;;10.60;99.90;;;;;;12401687;28;20049;-36
2023/05/31 03:02:14;;;;;;;13.27;7.82;;;10.80;99.90;;;;;;12440539;28;20053;-36
2023/05/31 03:08:16;;;;;;;18.05;9.15;;;11.30;99.90;;;;;;12436370;28;20514;-36
2023/05/31 03:14:19;;;;;;;16.90;9.48;;;11.20;99.90;;;;;;12442107;28;20091;-36
2023/05/31 03:20:22;;;;;;;17.25;10.05;;;11.30;99.90;;;;;;12448818;28;20172;-36
2023/05/31 03:26:24;;;;;;;12.95;8.23;;;11.00;99.90;;;;;;12447879;28;20132;-36
2023/05/31 03:32:26;;;;;;;15.85;9.20;;;11.10;99.90;;;;;;12443971;28;20061;-36
2023/05/31 03:38:28;;;;;;;14.95;9.43;;;11.10;99.90;;;;;;12444947;28;20529;-36
2023/05/31 03:44:30;;;;;;;14.90;9.57;;;11.40;99.90;;;;;;12441690;28;20053;-36
2023/05/31 03:50:34;;;;;;;12.15;8.95;;;11.40;99.90;;;;;;12440885;28;20057;-36
2023/05/31 03:56:35;;;;;;;15.98;9.13;;;11.50;99.90;;;;;;12454674;28;20042;-35
2023/05/31 04:02:38;;;;;;;17.65;9.18;;;11.70;99.90;;;;;;12439772;28;20049;-36
2023/05/31 04:08:52;;;;;;;13.07;7.82;;;13.00;99.90;;;;;;12442145;28;20057;-36
2023/05/31 04:14:54;;;;;;;15.07;8.23;;;14.90;99.90;;;;;;12428655;28;20045;-41
2023/05/31 04:20:56;;;;;;;9.57;6.70;;;13.80;99.90;;;;;;12451790;28;20049;-35
2023/05/31 04:26:58;;;;;;;9.80;6.82;;;14.70;99.90;;;;;;12449122;28;20049;-36
2023/05/31 04:33:01;;;;;;;15.10;7.85;;;14.90;99.90;;;;;;12453593;28;20050;-36
2023/05/31 04:39:03;;;;;;;14.25;7.65;;;16.10;99.90;;;;;;12463354;28;20532;-35
2023/05/31 04:45:07;;;;;;;12.73;7.05;;;15.40;99.90;;;;;;12446726;28;20058;-36
2023/05/31 04:51:09;;;;;;;15.10;7.25;;;16.60;99.90;;;;;;12448008;28;20398;-36
2023/05/31 04:57:11;;;;;;;8.70;5.85;;;16.30;99.90;;;;;;12449433;28;20101;-36
2023/05/31 05:03:13;;;;;;;10.05;6.65;;;15.70;99.90;;;;;;12446656;28;20038;-36
2023/05/31 05:09:15;;;;;;;16.48;8.13;;;15.30;99.90;;;;;;12442426;28;20070;-36
2023/05/31 05:15:17;;;;;;;13.32;8.18;;;14.60;99.90;;;;;;12446459;28;20061;-36
2023/05/31 05:21:19;;;;;;;13.57;9.15;;;14.20;99.90;;;;;;12448433;28;20049;-36
2023/05/31 05:27:21;;;;;;;10.75;7.80;;;13.70;99.90;;;;;;12446582;28;20077;-36
2023/05/31 05:33:23;;;;;;;14.18;8.27;;;13.80;99.90;;;;;;12450226;28;20049;-36
2023/05/31 05:39:25;;;;;;;11.95;7.75;;;13.70;99.90;;;;;;12447006;28;20399;-37
2023/05/31 05:45:27;;;;;;;16.45;9.32;;;13.60;99.90;;;;;;12445083;28;20074;-37
2023/05/31 05:51:29;;;;;;;13.57;7.97;;;13.60;99.90;;;;;;12448183;28;20045;-36
2023/05/31 05:57:32;;;;;;;15.02;9.18;;;13.70;99.90;;;;;;12453047;28;20406;-36
2023/05/31 06:03:34;;;;;;;13.50;8.48;;;13.50;99.90;;;;;;12445758;28;20049;-36
2023/05/31 06:09:36;;;;;;;12.07;7.05;;;13.30;99.90;;;;;;12447270;28;20096;-36
2023/05/31 06:15:38;;;;;;;14.05;7.93;;;13.60;99.90;;;;;;12444412;28;20501;-36
2023/05/31 06:21:40;;;;;;;13.75;8.10;;;13.70;99.90;;;;;;12446555;28;20038;-36
2023/05/31 06:27:42;;;;;;;9.65;6.85;;;13.80;99.90;;;;;;12444524;28;20081;-36
2023/05/31 06:33:44;;;;;;;14.90;7.65;;;14.10;99.90;;;;;;12457634;28;20045;-36
2023/05/31 06:39:46;;;;;;;16.95;7.80;;;14.30;99.90;;;;;;12436574;28;20058;-36
2023/05/31 06:45:50;;;;;;;9.45;5.68;;;14.40;99.90;;;;;;12442357;28;20053;-36
2023/05/31 06:51:53;;;;;;;9.70;6.05;;;15.20;99.90;;;;;;12443889;28;20080;-36
2023/05/31 06:57:55;;;;;;;10.10;5.93;;;15.60;99.90;;;;;;12453072;28;20053;-37
2023/05/31 07:03:58;;;;;;;10.57;5.15;;;15.80;99.90;;;;;;12433749;28;20040;-37
2023/05/31 07:10:00;;;;;;;9.35;5.72;;;15.80;99.90;;;;;;12444116;28;20049;-38
2023/05/31 07:16:02;;;;;;;14.25;6.50;;;15.80;99.90;;;;;;12438127;28;20058;-36
2023/05/31 07:22:05;;;;;;;11.02;6.10;;;15.70;99.90;;;;;;12439055;28;20137;-36
2023/05/31 07:28:07;;;;;;;15.75;6.18;;;15.60;99.90;;;;;;12440033;28;20505;-36
2023/05/31 07:34:09;;;;;;;9.55;5.50;;;15.60;99.90;;;;;;12442788;28;20453;-36
2023/05/31 07:40:13;;;;;;;11.20;5.93;;;15.70;99.90;;;;;;12441083;28;20137;-36
2023/05/31 07:46:15;;;;;;;11.23;5.00;;;15.80;99.90;;;;;;12437449;28;20046;-36
2023/05/31 07:52:21;;;;;;;9.80;6.15;;;16.00;99.90;;;;;;12440658;28;20417;-36
2023/05/31 07:58:24;;;;;;;14.80;6.50;;;16.00;99.90;;;;;;12438615;28;20096;-36
2023/05/31 08:04:26;;;;;;;9.68;5.43;;;16.10;99.90;;;;;;12440440;28;20498;-36
2023/05/31 08:10:29;;;;;;;13.43;4.85;;;16.20;99.90;;;;;;12440461;28;20049;-36
2023/05/31 08:16:33;;;;;;;8.85;4.72;;;16.40;99.90;;;;;;12442513;28;20443;-36
2023/05/31 08:22:35;;;;;;;7.63;3.85;;;16.70;99.90;;;;;;12440739;28;20061;-36
2023/05/31 08:28:37;;;;;;;9.25;4.30;;;17.00;99.90;;;;;;12444294;28;20164;-36
2023/05/31 08:34:39;;;;;;;8.13;4.20;;;17.00;99.90;;;;;;12439800;28;20069;-37
2023/05/31 08:40:41;;;;;;;11.38;3.83;;;17.30;99.90;;;;;;12439833;28;20046;-36
2023/05/31 08:46:46;;;;;;;6.22;3.05;;;17.60;99.90;;;;;;12434379;28;20055;-37
2023/05/31 08:52:50;;;;;;;8.10;3.80;;;17.80;99.90;;;;;;12447988;28;20474;-37
2023/05/31 08:58:54;;;;;;;6.25;3.05;;;18.10;99.90;;;;;;12440027;28;22699;-36
2023/05/31 09:04:56;;;;;;;9.27;3.08;;;18.20;99.90;;;;;;12438828;28;20041;-37
2023/05/31 09:11:01;;;;;;;6.20;2.70;;;18.40;99.90;;;;;;12437908;28;20052;-37
2023/05/31 09:17:03;;;;;;;8.40;2.92;;;18.30;99.90;;;;;;12447808;28;20053;-37
2023/05/31 09:23:09;;;;;;;8.50;3.50;;;18.80;99.90;;;;;;12450795;28;20042;-37
2023/05/31 09:29:11;;;;;;;6.90;2.95;;;19.10;99.90;;;;;;12446526;28;20054;-37
2023/05/31 09:35:17;;;;;;;7.63;3.97;;;19.50;99.90;;;;;;12480256;28;20267;-38
2023/05/31 09:41:20;;;;;;;6.68;3.42;;;19.30;99.90;;;;;;12446821;28;20046;-38
2023/05/31 09:47:23;;;;;;;;;;;19.90;99.90;;;;;;12443017;28;20037;-38
2023/05/31 09:53:25;;;;;;;5.20;2.45;;;20.10;99.90;;;;;;12441472;28;19928;-37
2023/05/31 09:59:27;;;;;;;6.28;2.53;;;20.50;99.90;;;;;;12444288;28;20058;-37
2023/05/31 10:05:29;;;;;;;6.45;2.70;;;20.50;99.90;;;;;;12445162;28;20046;-38
2023/05/31 10:11:45;;;;;;;9.45;2.33;;;20.40;99.90;;;;;;12440574;28;20050;-37
2023/05/31 10:18:13;;;;;;;4.55;1.70;;;20.50;99.90;;;;;;12448239;28;20052;-38
2023/05/31 10:24:26;;;;;;;6.60;2.17;;;20.80;99.90;;;;;;12434219;28;20076;-38
2023/05/31 10:30:35;;;;;;;8.23;2.33;;;20.90;99.90;;;;;;12445205;28;20042;-38
2023/05/31 10:36:37;;;;;;;7.22;2.20;;;20.90;99.90;;;;;;12437854;28;20387;-38
2023/05/31 10:42:48;;;;;;;6.38;2.20;;;21.10;99.90;;;;;;12445600;28;20061;-38
2023/05/31 10:48:55;;;;;;;7.22;2.42;;;21.70;99.90;;;;;;12441945;28;20450;-38
2023/05/31 10:55:23;;;;;;;6.80;2.60;;;21.90;99.90;;;;;;12442906;28;20053;-37
2023/05/31 11:01:29;;;;;;;6.75;2.58;;;21.00;99.90;;;;;;12440821;28;20416;-38
2023/05/31 11:07:32;;;;;;;7.82;2.30;;;20.90;99.90;;;;;;12437215;28;20042;-37
2023/05/31 11:14:03;;;;;;;6.03;2.72;;;20.90;99.90;;;;;;12440074;28;20077;-37
2023/05/31 11:20:06;;;;;;;5.45;2.15;;;20.90;99.90;;;;;;12436778;28;20554;-37
2023/05/31 11:26:20;;;;;;;10.02;2.47;;;21.40;99.90;;;;;;12412318;28;20097;-37
2023/05/31 11:32:34;;;;;;;7.38;2.38;;;22.00;99.90;;;;;;12437480;28;20077;-37
2023/05/31 11:38:36;;;;;;;7.10;1.95;;;21.50;99.90;;;;;;12439218;28;20125;-38
2023/05/31 11:44:42;;;;;;;9.63;2.35;;;21.50;99.90;;;;;;12436130;28;20045;-37
2023/05/31 11:50:47;;;;;;;6.97;1.88;;;21.90;99.90;;;;;;12435177;28;20060;-37
2023/05/31 11:56:49;;;;;;;5.93;1.80;;;22.60;99.90;;;;;;12438440;28;20052;-37
2023/05/31 12:03:04;;;;;;;5.87;2.07;;;22.70;99.90;;;;;;12439193;28;20054;-38
2023/05/31 12:09:08;;;;;;;4.35;1.90;;;22.40;99.90;;;;;;12443172;28;20520;-37
2023/05/31 12:15:12;;;;;;;6.07;2.13;;;22.20;99.90;;;;;;12435582;28;20521;-38
2023/05/31 12:21:15;;;;;;;;;;;22.80;99.90;;;;;;12431859;28;20057;-37
2023/05/31 12:27:23;;;;;;;6.80;2.03;;;21.80;99.90;;;;;;12442319;28;20388;-37
2023/05/31 12:33:50;;;;;;;8.43;1.98;;;21.00;99.90;;;;;;12441351;28;20065;-37
2023/05/31 12:40:14;;;;;;;7.32;2.10;;;21.40;99.90;;;;;;12451331;28;20034;-37
2023/05/31 12:46:17;;;;;;;;;;;21.80;99.90;;;;;;12443275;28;20054;-38
2023/05/31 12:52:20;;;;;;;5.65;1.80;;;21.80;99.90;;;;;;12448981;28;19921;-37
2023/05/31 12:58:22;;;;;;;5.25;1.67;;;21.90;99.90;;;;;;12454740;28;20057;-37
2023/05/31 13:04:24;;;;;;;3.83;1.63;;;22.30;99.90;;;;;;12444618;28;20279;-38
2023/05/31 13:10:29;;;;;;;7.03;2.00;;;22.50;99.90;;;;;;12446274;28;20061;-37
2023/05/31 13:16:32;;;;;;;6.78;1.70;;;22.40;99.90;;;;;;12448251;28;20053;-37
2023/05/31 13:22:34;;;;;;;8.52;2.10;;;21.80;99.90;;;;;;12446894;28;20472;-37
2023/05/31 13:28:36;;;;;;;5.30;1.70;;;21.70;99.90;;;;;;12446276;28;20050;-38
2023/05/31 13:34:37;;;;;;;4.25;1.42;;;21.80;99.90;;;;;;12460696;28;20089;-37
2023/05/31 13:40:42;;;;;;;5.95;1.85;;;22.30;99.90;;;;;;12475301;28;20132;-38
2023/05/31 13:46:44;;;;;;;9.02;2.10;;;22.50;99.90;;;;;;12459031;28;20042;-38
2023/05/31 13:52:47;;;;;;;4.55;1.80;;;22.10;99.90;;;;;;12439115;28;20053;-37
2023/05/31 13:58:51;;;;;;;6.43;2.17;;;21.90;99.90;;;;;;12444245;28;20422;-37
2023/05/31 14:04:53;;;;;;;7.37;1.53;;;21.90;99.90;;;;;;12445347;28;20038;-37
2023/05/31 14:10:55;;;;;;;6.07;1.85;;;22.30;99.90;;;;;;12444064;28;20411;-37
2023/05/31 14:16:59;;;;;;;8.33;1.93;;;22.00;99.90;;;;;;12444943;28;20061;-38
2023/05/31 14:23:04;;;;;;;6.97;1.73;;;22.30;99.90;;;;;;12445271;28;20038;-38
2023/05/31 14:29:06;;;;;;;6.57;1.83;;;22.40;99.90;;;;;;12440217;28;20428;-37
2023/05/31 14:35:10;;;;;;;5.72;1.60;;;22.30;99.90;;;;;;12457638;28;20060;-37
2023/05/31 14:41:12;;;;;;;5.20;1.63;;;22.30;99.90;;;;;;12444431;28;20046;-37
2023/05/31 14:47:14;;;;;;;4.00;1.50;;;22.30;99.90;;;;;;12439887;28;20057;-37
2023/05/31 14:53:16;;;;;;;2.90;1.27;;;22.30;99.90;;;;;;12444193;28;20541;-37
2023/05/31 14:59:18;;;;;;;8.23;1.92;;;22.40;99.90;;;;;;12449084;28;20060;-37
2023/05/31 15:05:20;;;;;;;3.75;1.42;;;21.80;99.90;;;;;;12442127;28;20053;-38
2023/05/31 15:11:23;;;;;;;5.57;1.55;;;22.30;99.90;;;;;;12440388;28;20046;-38
2023/05/31 15:17:25;;;;;;;5.47;1.70;;;22.40;99.90;;;;;;12441864;28;20065;-38
2023/05/31 15:23:27;;;;;;;3.95;1.60;;;22.40;99.90;;;;;;12444099;28;20060;-38
2023/05/31 15:29:29;;;;;;;6.20;1.83;;;22.70;99.90;;;;;;12440823;28;20425;-38
2023/05/31 15:35:33;;;;;;;3.13;1.42;;;22.60;99.90;;;;;;12443174;28;20054;-37
2023/05/31 15:41:37;;;;;;;4.93;1.58;;;22.50;99.90;;;;;;12445052;28;20045;-37
2023/05/31 15:47:39;;;;;;;6.47;1.70;;;22.30;99.90;;;;;;12432015;28;20046;-37
2023/05/31 15:53:41;;;;;;;5.38;1.45;;;22.60;99.90;;;;;;12435330;28;20654;-38
2023/05/31 15:59:43;;;;;;;3.97;1.30;;;22.90;99.90;;;;;;12441251;28;20119;-38
2023/05/31 16:05:45;;;;;;;4.03;1.65;;;23.10;99.90;;;;;;12438608;28;20045;-38
2023/05/31 16:11:47;;;;;;;3.70;1.52;;;23.10;99.90;;;;;;12435531;28;20058;-38
2023/05/31 16:17:53;;;;;;;6.30;1.55;;;23.00;99.90;;;;;;12439511;28;20072;-38
2023/05/31 16:23:55;;;;;;;6.18;1.73;;;23.00;99.90;;;;;;12434533;28;20103;-38
2023/05/31 16:29:57;;;;;;;6.60;1.73;;;22.40;99.90;;;;;;12433516;28;20406;-38
2023/05/31 16:35:59;;;;;;;6.28;1.48;;;22.60;99.90;;;;;;12439387;28;20042;-38
2023/05/31 16:42:01;;;;;;;3.28;1.30;;;22.50;99.90;;;;;;12431995;28;20154;-38
2023/05/31 16:48:03;;;;;;;4.63;1.50;;;22.70;99.90;;;;;;12438990;28;20049;-37
2023/05/31 16:54:06;;;;;;;5.05;1.60;;;22.50;99.90;;;;;;12446918;28;20056;-38
2023/05/31 17:00:09;;;;;;;5.00;1.85;;;23.00;99.90;;;;;;12435267;28;20060;-39
2023/05/31 17:06:11;;;;;;;5.30;1.50;;;23.00;99.90;;;;;;12429130;28;20046;-38
2023/05/31 17:12:13;;;;;;;5.80;1.50;;;22.60;99.90;;;;;;12431004;28;20049;-38
2023/05/31 17:18:15;;;;;;;7.40;1.67;;;22.20;99.90;;;;;;12434960;28;20075;-38
2023/05/31 17:24:17;;;;;;;3.90;1.38;;;23.20;99.90;;;;;;12437170;28;20053;-40
2023/05/31 17:30:25;;;;;;;3.42;1.33;;;23.50;99.90;;;;;;12436279;28;20061;-40
2023/05/31 17:36:27;;;;;;;5.93;1.63;;;23.60;99.90;;;;;;12443540;28;20140;-39
2023/05/31 17:42:30;;;;;;;3.92;1.42;;;24.20;99.90;;;;;;12440804;28;20038;-39
2023/05/31 17:48:32;;;;;;;;;;;24.50;99.90;;;;;;12428171;28;20046;-39
2023/05/31 17:54:35;;;;;;;3.65;1.08;;;24.80;99.90;;;;;;12441978;28;20012;-39
2023/05/31 18:00:37;;;;;;;3.80;1.25;;;25.00;99.90;;;;;;12437521;28;20080;-39
2023/05/31 18:06:39;;;;;;;3.13;1.35;;;25.20;99.90;;;;;;12439268;28;20050;-38
2023/05/31 18:12:43;;;;;;;4.07;1.20;;;24.30;99.90;;;;;;12439891;28;20064;-38
2023/05/31 18:18:47;;;;;;;6.95;1.60;;;23.30;99.90;;;;;;12437502;28;20183;-36
2023/05/31 18:24:49;;;;;;;6.28;1.60;;;22.20;99.90;;;;;;12446392;28;20046;-37
2023/05/31 18:30:52;;;;;;;6.20;1.65;;;21.40;99.90;;;;;;12452748;28;20046;-37
2023/05/31 18:36:54;;;;;;;5.38;1.92;;;21.10;99.90;;;;;;12444285;28;20052;-36
2023/05/31 18:42:56;;;;;;;7.53;1.77;;;20.70;99.90;;;;;;12440676;28;20646;-38
2023/05/31 18:48:58;;;;;;;5.72;1.42;;;20.60;99.90;;;;;;12440422;28;20042;-36
2023/05/31 18:55:00;;;;;;;5.28;1.45;;;20.20;99.90;;;;;;12445380;28;20045;-36
2023/05/31 19:01:02;;;;;;;3.55;1.17;;;20.00;99.90;;;;;;12445222;28;20049;-36
2023/05/31 19:07:05;;;;;;;5.05;1.55;;;19.70;99.90;;;;;;12433752;28;20056;-36
2023/05/31 19:13:11;;;;;;;6.03;1.20;;;19.30;99.90;;;;;;12440201;28;20565;-36
2023/05/31 19:19:13;;;;;;;8.18;1.45;;;19.30;99.90;;;;;;12440828;28;20046;-36
2023/05/31 19:25:15;;;;;;;5.85;1.52;;;19.10;99.90;;;;;;12442011;28;20129;-36
2023/05/31 19:31:18;;;;;;;8.93;2.13;;;18.70;99.90;;;;;;12435321;28;20053;-36
2023/05/31 19:37:20;;;;;;;8.18;2.28;;;18.60;99.90;;;;;;12439188;28;20045;-36
2023/05/31 19:43:22;;;;;;;6.03;2.03;;;18.20;99.90;;;;;;12444880;28;20475;-36
2023/05/31 19:49:23;;;;;;;7.05;2.40;;;18.10;99.90;;;;;;12439421;28;20050;-36
2023/05/31 19:55:25;;;;;;;6.80;2.17;;;17.80;99.90;;;;;;12439354;28;20041;-36
2023/05/31 20:01:27;;;;;;;7.55;2.40;;;17.80;99.90;;;;;;12440840;28;20057;-36
2023/05/31 20:07:29;;;;;;;6.85;2.53;;;17.60;99.90;;;;;;12441678;28;20456;-36
2023/05/31 20:13:32;;;;;;;6.90;2.60;;;17.40;99.90;;;;;;12436889;28;20085;-36
2023/05/31 20:19:35;;;;;;;8.03;2.60;;;17.20;99.90;;;;;;12454059;28;20048;-36
2023/05/31 20:25:37;;;;;;;5.63;2.20;;;17.10;99.90;;;;;;12439954;28;20049;-36
2023/05/31 20:31:39;;;;;;;8.98;2.92;;;17.10;99.90;;;;;;12447140;28;20033;-36
2023/05/31 20:37:41;;;;;;;7.65;2.45;;;16.90;99.90;;;;;;12440874;28;20045;-36
2023/05/31 20:43:51;;;;;;;9.15;2.78;;;16.60;99.90;;;;;;12440460;28;20049;-37
2023/05/31 20:49:53;;;;;;;6.47;2.58;;;16.40;99.90;;;;;;12434382;28;20487;-37
2023/05/31 20:55:55;;;;;;;6.93;2.80;;;16.50;99.90;;;;;;12441458;28;20038;-37
2023/05/31 21:01:57;;;;;;;7.97;2.95;;;16.50;99.90;;;;;;12439561;28;20058;-37
2023/05/31 21:07:59;;;;;;;6.95;3.15;;;16.40;99.90;;;;;;12438810;28;20057;-37
2023/05/31 21:14:01;;;;;;;11.52;3.70;;;16.30;99.90;;;;;;12446769;28;20053;-36
2023/05/31 21:20:04;;;;;;;9.02;4.65;;;15.90;99.90;;;;;;12447582;28;20064;-37
2023/05/31 21:26:06;;;;;;;8.55;4.60;;;15.60;99.90;;;;;;12447916;28;20041;-36
2023/05/31 21:32:11;;;;;;;9.07;5.05;;;15.70;99.90;;;;;;12451165;28;20117;-37
2023/05/31 21:38:13;;;;;;;9.73;4.85;;;15.50;99.90;;;;;;12445540;28;20057;-37
2023/05/31 21:44:15;;;;;;;7.25;4.85;;;15.10;99.90;;;;;;12445440;28;20042;-36
2023/05/31 21:50:18;;;;;;;11.00;5.45;;;15.00;99.90;;;;;;12446691;28;20088;-37
2023/05/31 21:56:21;;;;;;;9.70;5.18;;;14.90;99.90;;;;;;12444504;28;20046;-37
2023/05/31 22:02:23;;;;;;;8.40;5.30;;;14.60;99.90;;;;;;12443092;28;20560;-36
2023/05/31 22:08:25;;;;;;;11.05;5.88;;;14.60;99.90;;;;;;12445241;28;20046;-36
2023/05/31 22:14:28;;;;;;;11.13;5.68;;;14.40;99.90;;;;;;12443850;28;20605;-37
2023/05/31 22:20:34;;;;;;;9.90;5.28;;;14.50;99.90;;;;;;12443210;28;20520;-36
2023/05/31 22:26:36;;;;;;;10.88;5.45;;;14.30;99.90;;;;;;12442447;28;20156;-36
2023/05/31 22:32:38;;;;;;;15.93;6.28;;;14.20;99.90;;;;;;12445307;28;20045;-35
2023/05/31 22:38:41;;;;;;;15.05;6.10;;;13.70;99.90;;;;;;12445314;28;20557;-36
2023/05/31 22:44:43;;;;;;;14.32;6.05;;;13.50;99.90;;;;;;12439593;28;20045;-35
2023/05/31 22:50:45;;;;;;;14.25;6.10;;;13.70;99.90;;;;;;12443610;28;20045;-35
2023/05/31 22:56:47;;;;;;;11.32;6.18;;;13.70;99.90;;;;;;12442034;28;20508;-36
2023/05/31 23:02:49;;;;;;;15.68;6.90;;;13.60;99.90;;;;;;12441947;28;20409;-36
2023/05/31 23:08:53;;;;;;;12.85;6.15;;;13.00;99.90;;;;;;12442338;28;20470;-35
2023/05/31 23:14:57;;;;;;;12.23;6.53;;;13.10;99.90;;;;;;12438433;28;20568;-36
2023/05/31 23:21:00;;;;;;;12.38;7.30;;;13.00;99.90;;;;;;12440549;28;20668;-36
2023/05/31 23:27:02;;;;;;;13.43;7.82;;;12.40;99.90;;;;;;12439169;28;20068;-36
2023/05/31 23:33:04;;;;;;;15.52;7.47;;;12.50;99.90;;;;;;12436577;28;20050;-35
2023/05/31 23:39:07;;;;;;;15.45;7.57;;;12.20;99.90;;;;;;12442903;28;20413;-35
2023/05/31 23:45:10;;;;;;;14.88;7.65;;;12.50;99.90;;;;;;12441505;28;20068;-35
2023/05/31 23:51:12;;;;;;;10.68;6.30;;;12.70;99.90;;;;;;12430074;28;20050;-36
2023/05/31 23:57:14;;;;;;;14.80;6.57;;;12.80;99.90;;;;;;12431255;28;20053;-35
